Kinston Regional Jetport At Stallings Field Kinston US
ICAO: KISO
IATA: ISO
Category: Medium
Scheduled Services: No

Elevation: 93 ft
TransAlt. 18000 ft.

Airport Communications:
SEYMOUR JOHN APP/DEP:127.3
AWOS 3:132.75
CTAF:120.6
GND:121.9
RALEIGH RDO:109.6
TWR:120.6
UNICOM:122.95

KISO Zoom In..

If you have problems with the map follow the link
https://www.worldairports.se/pages/airport.php?
ICAO=KISO

Runways:

(A) RW 05 length 11500 ft width 150 ft
ILS 111.30 / hdg 50

(B) RW 23 length 11500 ft width 150 ft
---- / hdg 230

Location; KISO
Day. 19 / Time. 00.56 Zulu
* Altimeter: 30.41
* Temperature: 08° c. 46.4°f.
* Wind from: 000° Speed 00 kn.
Dewpoint: 07° c.
Visibility: 10 Statute Miles.
Clouds: Clear (automated report).

KISO 190056Z 00000KT 10SM CLR 08/07 A3041


Wind - Calm.

 
 
jpsmedia.com for Web Design worldairports.se 2018   terms of use